ADDS METAR Data INFO
IDs: Format: Raw Decoded Include TAF

Data at: 0249 UTC 21 Jan 2018

KORE 210152Z AUTO 27005KT 10SM CLR M01/M04 A2992 RMK AO2 SLP140 T10111039
KORE 210052Z AUTO 09003KT 10SM CLR 02/M03 A2991 RMK AO2 SLP136 T00171028
KORE 202352Z AUTO 26006KT 10SM CLR 04/M02 A2988 RMK AO2 SLP126 T00391022 10078 20000 53036
KORE 202252Z AUTO VRB03KT 10SM CLR 03/M03 A2985 RMK AO2 SLP114 T00331028
KORE 202152Z AUTO 19004KT 10SM CLR 06/M03 A2981 RMK AO2 SLP100 T00561028
KORE 202052Z AUTO 24009G15KT 10SM CLR 07/M03 A2977 RMK AO2 SLP089 T00671028 53023
KORE 201952Z AUTO 30006KT 10SM CLR 08/M03 A2975 RMK AO2 SLP080 T00781033
KORE 201852Z AUTO 28007G17KT 10SM CLR 08/M03 A2972 RMK AO2 SLP072 T00781033
KORE 201752Z AUTO 27014G21KT 10SM CLR 07/M03 A2970 RMK AO2 SLP065 T00721033 10072 21056 58009
KORE 201652Z AUTO 16003KT 10SM CLR 06/M04 A2972 RMK AO2 SLP070 T00611039
KORE 201552Z AUTO VRB06KT 10SM CLR 04/M04 A2973 RMK AO2 SLP074 T00391044
KORE 201452Z AUTO 00000KT 10SM CLR 01/M04 A2973 RMK AO2 SLP076 T00111044 53007
KORE 201352Z AUTO 18009KT 10SM CLR M01/M05 A2972 RMK AO2 SLP070 T10061050
KORE 201252Z AUTO 19009KT 10SM CLR M01/M06 A2971 RMK AO2 SLP066 T10111056
KORE 201152Z AUTO 19005KT 9SM CLR M06/M07 A2971 RMK AO2 SLP069 T10561067 11056 21083 56020
KORE 201052Z AUTO 00000KT 7SM CLR M06/M07 A2972 RMK AO2 SLP071 T10611072
KORE 200952Z AUTO 00000KT 7SM CLR M07/M07 A2974 RMK AO2 SLP078 T10721072
KORE 200852Z AUTO 34003KT 7SM CLR M08/M08 A2977 RMK AO2 SLP089 T10781078 58014
KORE 200752Z AUTO 00000KT 6SM BR CLR M07/M08 A2981 RMK AO2 SLP102 T10721083
KORE 200652Z AUTO 00000KT 6SM BR CLR M08/M08 A2980 RMK AO2 SLP099 T10781083
KORE 200552Z AUTO 33003KT 5SM BR CLR M08/M08 A2981 RMK AO2 SLP104 I6001 T10781078 11022 21089 58027
KORE 200505Z AUTO 00000KT 5SM BR CLR M09/M09 A2984 RMK AO2 T10891089
KORE 200452Z AUTO 30003KT 2SM BR CLR M09/M09 A2986 RMK AO2 SLP119 I1001 T10891089 400001100
KORE 200446Z AUTO 00000KT 2 1/2SM BR CLR M08/M08 A2985 RMK AO2 I1001
KORE 200444Z AUTO 00000KT 1 1/4SM BR CLR M07/M08 A2985 RMK AO2 I1001 T10721083
KORE 200434Z AUTO 00000KT 1/2SM FZFG CLR M08/M09 A2986 RMK AO2 I1000 T10781089
KORE 200427Z AUTO 00000KT 1SM BR CLR M09/M09 A2987 RMK AO2 I1000 T10891089
KORE 200424Z AUTO 00000KT 1 3/4SM BR CLR M08/M08 A2987 RMK AO2 I1000 T10831083
KORE 200352Z AUTO 00000KT 5SM BR CLR M07/M07 A2989 RMK AO2 SLP130 I1000 T10671072
KORE 200346Z AUTO 00000KT 3SM BR CLR M06/M07 A2989 RMK AO2 I1000
KORE 200338Z AUTO 00000KT 1 3/4SM BR CLR M07/M08 A2989 RMK AO2 T10721078
KORE 200252Z AUTO 00000KT 9SM CLR M06/M07 A2989 RMK AO2 SLP132 T10611072 58011
KORE 200152Z AUTO 19004KT 10SM CLR M04/M06 A2992 RMK AO2 SLP140 T10391061
KORE 200052Z AUTO 21004KT 10SM CLR M03/M07 A2992 RMK AO2 SLP143 T10331067
KORE 192352Z AUTO 00000KT 10SM OVC035 M03/M06 A2993 RMK AO2 SLP144 T10281061 10000 21028 53000
KORE 192252Z AUTO 00000KT 10SM OVC035 M02/M07 A2992 RMK AO2 SLP140 T10171067
KORE 192152Z AUTO 00000KT 10SM OVC038 M01/M07 A2992 RMK AO2 SLP141 T10111067
KORE 192052Z AUTO VRB05KT 10SM OVC037 M01/M07 A2993 RMK AO2 SLP142 T10111067 53005
KORE 191952Z AUTO 29005KT 10SM OVC034 M01/M07 A2992 RMK AO2 SLP139 T10061072
KORE 191852Z AUTO 29009KT 10SM BKN037 M01/M07 A2991 RMK AO2 SLP137 T10061072
KORE 191752Z AUTO 25010G14KT 10SM SCT036 M01/M08 A2991 RMK AO2 SLP137 T10061083 10000 21100 58023
KORE 191652Z AUTO 26010KT 10SM CLR M01/M08 A2994 RMK AO2 SLP147 T10111083
KORE 191552Z AUTO 00000KT 10SM SCT032 M03/M08 A2997 RMK AO2 SLP156 T10331078
KORE 191504Z AUTO 00000KT 8SM OVC030 M05/M08 A2997 RMK AO2 T10501078
KORE 191452Z AUTO 00000KT 8SM OVC029 M06/M08 A2998 RMK AO2 SLP162 T10561078 51009